createdAt,value
2019-06-26T00:00:36.239Z,44.71
2019-06-26T00:01:33.208Z,45.01
2019-06-26T00:02:33.195Z,44.91
2019-06-26T00:03:33.183Z,44.71
2019-06-26T00:04:33.193Z,44.91
2019-06-26T00:05:33.164Z,44.81
2019-06-26T00:06:33.161Z,45.30
2019-06-26T00:07:33.142Z,44.71
2019-06-26T00:08:33.131Z,44.91
2019-06-26T00:09:33.147Z,44.71
2019-06-26T00:10:33.109Z,45.01
2019-06-26T00:11:33.099Z,44.91
2019-06-26T00:12:33.087Z,45.40
2019-06-26T00:13:33.078Z,45.10
2019-06-26T00:14:33.074Z,44.81
2019-06-26T00:15:33.057Z,45.10
2019-06-26T00:16:33.046Z,45.50
2019-06-26T00:17:33.060Z,45.10
2019-06-26T00:18:33.030Z,44.91
2019-06-26T00:19:33.012Z,45.10
2019-06-26T00:20:33.004Z,45.10
2019-06-26T00:21:32.993Z,45.20
2019-06-26T00:22:32.981Z,45.40
2019-06-26T00:23:32.980Z,45.42
2019-06-26T00:24:32.963Z,45.40
2019-06-26T00:25:32.949Z,45.79
2019-06-26T00:26:32.953Z,45.13
2019-06-26T00:27:32.934Z,45.62
2019-06-26T00:28:32.918Z,45.62
2019-06-26T00:29:32.912Z,45.52
2019-06-26T00:30:32.905Z,45.42
2019-06-26T00:31:32.887Z,45.32
2019-06-26T00:32:32.886Z,45.52
2019-06-26T00:33:32.866Z,45.42
2019-06-26T00:34:32.854Z,45.52
2019-06-26T00:35:32.846Z,45.32
2019-06-26T00:36:32.833Z,45.03
2019-06-26T00:37:32.827Z,45.72
2019-06-26T00:38:32.814Z,45.03
2019-06-26T00:39:32.801Z,45.03
2019-06-26T00:40:32.801Z,45.52
2019-06-26T00:41:32.785Z,45.32
2019-06-26T00:42:32.774Z,45.32
2019-06-26T00:43:42.073Z,45.23
2019-06-26T00:44:33.749Z,46.01
2019-06-26T00:45:32.746Z,45.82
2019-06-26T00:46:32.737Z,45.62
2019-06-26T00:47:32.718Z,45.42
2019-06-26T00:48:32.709Z,45.82
2019-06-26T00:49:32.701Z,45.32
2019-06-26T00:50:32.686Z,45.62
2019-06-26T00:51:32.676Z,45.52
2019-06-26T00:52:32.665Z,45.72
2019-06-26T00:53:32.655Z,46.11
2019-06-26T00:54:32.647Z,45.62
2019-06-26T00:55:32.633Z,45.72
2019-06-26T00:56:32.627Z,45.52
2019-06-26T00:57:32.614Z,45.42
2019-06-26T00:58:32.602Z,45.42
2019-06-26T00:59:32.599Z,45.32
2019-06-26T01:00:32.583Z,45.32
2019-06-26T01:01:32.578Z,45.52
2019-06-26T01:02:32.564Z,45.82
2019-06-26T01:03:32.559Z,45.32
2019-06-26T01:04:32.558Z,45.52
2019-06-26T01:05:32.537Z,45.72
2019-06-26T01:06:32.545Z,45.13
2019-06-26T01:07:32.514Z,45.72
2019-06-26T01:08:32.505Z,45.03
2019-06-26T01:09:32.492Z,45.03
2019-06-26T01:10:32.488Z,45.13
2019-06-26T01:11:32.474Z,45.15
2019-06-26T01:12:32.460Z,45.03
2019-06-26T01:13:32.449Z,45.03
2019-06-26T01:14:32.438Z,45.03
2019-06-26T01:15:32.427Z,45.13
2019-06-26T01:16:32.417Z,45.03
2019-06-26T01:17:32.410Z,44.93
2019-06-26T01:18:32.403Z,46.01
2019-06-26T01:19:32.385Z,44.93
2019-06-26T01:20:32.374Z,45.03
2019-06-26T01:21:32.364Z,45.03
2019-06-26T01:22:32.356Z,45.13
2019-06-26T01:23:32.345Z,44.83
2019-06-26T01:24:32.333Z,45.94
2019-06-26T01:25:32.322Z,45.15
2019-06-26T01:26:32.314Z,45.84
2019-06-26T01:27:32.300Z,45.05
2019-06-26T01:28:32.291Z,45.74
2019-06-26T01:29:32.729Z,45.54
2019-06-26T01:30:32.271Z,45.35
2019-06-26T01:31:32.258Z,45.25
2019-06-26T01:32:32.248Z,45.23
2019-06-26T01:33:32.238Z,45.45
2019-06-26T01:34:32.226Z,45.74
2019-06-26T01:35:32.218Z,45.45
2019-06-26T01:36:32.204Z,45.64
2019-06-26T01:37:32.194Z,45.64
2019-06-26T01:38:32.185Z,45.84
2019-06-26T01:39:32.174Z,45.82
2019-06-26T01:40:32.164Z,45.64
2019-06-26T01:41:32.159Z,45.74
2019-06-26T01:42:32.145Z,45.45
2019-06-26T01:43:32.136Z,46.14
2019-06-26T01:44:32.120Z,45.52
2019-06-26T01:45:32.117Z,45.64
2019-06-26T01:46:32.098Z,45.84
2019-06-26T01:47:32.088Z,46.04
2019-06-26T01:48:32.078Z,45.64
2019-06-26T01:49:32.067Z,45.74
2019-06-26T01:50:32.066Z,45.74
2019-06-26T01:51:32.068Z,46.04
2019-06-26T01:52:32.035Z,45.94
2019-06-26T01:53:32.035Z,46.23
2019-06-26T01:54:32.014Z,46.44
2019-06-26T01:55:32.006Z,46.23
2019-06-26T01:56:31.992Z,46.23
2019-06-26T01:57:31.983Z,46.23
2019-06-26T01:58:31.972Z,46.14
2019-06-26T01:59:31.961Z,46.33
2019-06-26T02:00:31.961Z,46.14
2019-06-26T02:01:31.946Z,45.64
2019-06-26T02:02:31.929Z,45.64
2019-06-26T02:03:31.919Z,45.82
2019-06-26T02:04:31.942Z,46.73
2019-06-26T02:05:31.899Z,46.63
2019-06-26T02:06:31.886Z,46.63
2019-06-26T02:07:31.876Z,47.32
2019-06-26T02:08:31.864Z,46.93
2019-06-26T02:09:31.866Z,47.13
2019-06-26T02:10:31.848Z,47.32
2019-06-26T02:11:31.831Z,46.83
2019-06-26T02:12:31.823Z,46.63
2019-06-26T02:13:31.814Z,46.63
2019-06-26T02:14:32.032Z,46.93
2019-06-26T02:15:31.791Z,47.03
2019-06-26T02:16:31.789Z,46.93
2019-06-26T02:17:31.769Z,46.73
2019-06-26T02:18:31.767Z,47.03
2019-06-26T02:19:31.748Z,47.13
2019-06-26T02:20:31.749Z,47.42
2019-06-26T02:21:31.731Z,47.03
2019-06-26T02:22:31.717Z,47.13
2019-06-26T02:23:31.706Z,46.93
2019-06-26T02:24:31.696Z,46.73
2019-06-26T02:25:31.685Z,46.83
2019-06-26T02:26:31.675Z,47.22
2019-06-26T02:27:31.669Z,46.73
2019-06-26T02:28:31.651Z,46.73
2019-06-26T02:29:31.648Z,47.22
2019-06-26T02:30:31.631Z,47.32
2019-06-26T02:31:31.620Z,47.22
2019-06-26T02:32:31.611Z,47.62
2019-06-26T02:33:31.603Z,47.42
2019-06-26T02:34:31.594Z,47.22
2019-06-26T02:35:31.581Z,47.03
2019-06-26T02:36:31.565Z,47.62
2019-06-26T02:37:31.556Z,47.32
2019-06-26T02:38:31.545Z,47.32
2019-06-26T02:39:31.537Z,47.13
2019-06-26T02:40:31.526Z,47.05
2019-06-26T02:41:31.514Z,47.22
2019-06-26T02:42:31.501Z,47.52
2019-06-26T02:43:31.492Z,47.91
2019-06-26T02:44:51.565Z,47.42
2019-06-26T02:45:32.469Z,47.42
2019-06-26T02:46:31.483Z,47.62
2019-06-26T02:47:31.448Z,47.91
2019-06-26T02:48:31.438Z,47.91
2019-06-26T02:49:31.438Z,47.52
2019-06-26T02:50:31.428Z,47.72
2019-06-26T02:51:31.409Z,47.32
2019-06-26T02:52:31.402Z,47.32
2019-06-26T02:53:31.386Z,47.13
2019-06-26T02:54:31.379Z,47.91
2019-06-26T02:55:31.364Z,47.22
2019-06-26T02:56:31.363Z,47.03
2019-06-26T02:57:31.387Z,47.13
2019-06-26T02:58:31.332Z,47.91
2019-06-26T02:59:31.327Z,47.25
2019-06-26T03:00:31.312Z,47.22
2019-06-26T03:01:31.572Z,47.22
2019-06-26T03:02:31.293Z,47.34
2019-06-26T03:03:31.279Z,47.81
2019-06-26T03:04:31.297Z,47.03
2019-06-26T03:05:31.257Z,47.91
2019-06-26T03:06:31.281Z,47.64
2019-06-26T03:07:31.235Z,47.91
2019-06-26T03:08:31.231Z,47.72
2019-06-26T03:09:31.216Z,47.54
2019-06-26T03:10:31.206Z,47.54
2019-06-26T03:11:31.194Z,47.81
2019-06-26T03:12:31.184Z,47.84
2019-06-26T03:13:31.172Z,47.64
2019-06-26T03:14:31.163Z,47.42
2019-06-26T03:15:31.158Z,47.44
2019-06-26T03:16:31.139Z,47.72
2019-06-26T03:17:31.129Z,47.72
2019-06-26T03:18:31.123Z,47.72
2019-06-26T03:19:31.108Z,47.81
2019-06-26T03:20:31.101Z,47.64
2019-06-26T03:21:31.089Z,47.72
2019-06-26T03:22:31.077Z,47.91
2019-06-26T03:23:31.064Z,47.94
2019-06-26T03:24:31.053Z,47.84
2019-06-26T03:25:31.043Z,47.64
2019-06-26T03:26:31.039Z,47.64
2019-06-26T03:27:31.022Z,47.64
2019-06-26T03:28:31.010Z,47.64
2019-06-26T03:29:31.000Z,47.64
2019-06-26T03:30:30.996Z,47.64
2019-06-26T03:31:30.983Z,48.43
2019-06-26T03:32:30.977Z,48.24
2019-06-26T03:33:30.966Z,47.94
2019-06-26T03:34:30.946Z,47.84
2019-06-26T03:35:30.937Z,48.53
2019-06-26T03:36:30.939Z,48.83
2019-06-26T03:37:30.919Z,49.22
2019-06-26T03:38:30.908Z,48.63
2019-06-26T03:39:30.897Z,49.13
2019-06-26T03:40:30.889Z,48.63
2019-06-26T03:41:30.873Z,48.63
2019-06-26T03:42:30.870Z,49.22
2019-06-26T03:43:30.853Z,48.93
2019-06-26T03:44:30.850Z,48.63
2019-06-26T03:45:30.833Z,48.73
2019-06-26T03:46:30.821Z,49.22
2019-06-26T03:47:30.807Z,49.13
2019-06-26T03:48:30.797Z,49.22
2019-06-26T03:49:30.785Z,48.73
2019-06-26T03:50:30.774Z,48.63
2019-06-26T03:51:30.771Z,49.13
2019-06-26T03:52:30.755Z,48.93
2019-06-26T03:53:30.747Z,49.52
2019-06-26T03:54:30.771Z,49.02
2019-06-26T03:55:30.723Z,48.93
2019-06-26T03:56:30.722Z,48.73
2019-06-26T03:57:30.699Z,49.02
2019-06-26T03:58:30.689Z,48.83
2019-06-26T03:59:30.685Z,48.83
2019-06-26T04:00:30.667Z,48.73
2019-06-26T04:01:30.659Z,48.83
2019-06-26T04:02:30.649Z,48.73
2019-06-26T04:03:30.635Z,48.93
2019-06-26T04:04:30.635Z,48.63
2019-06-26T04:05:30.641Z,49.62
2019-06-26T04:06:30.606Z,49.62
2019-06-26T04:07:30.593Z,49.32
2019-06-26T04:08:30.656Z,49.02
2019-06-26T04:09:30.572Z,48.93
2019-06-26T04:10:30.561Z,48.83
2019-06-26T04:11:30.554Z,48.83
2019-06-26T04:12:30.540Z,48.73
2019-06-26T04:13:30.529Z,48.93
2019-06-26T04:14:30.517Z,48.73
2019-06-26T04:15:41.350Z,49.02
2019-06-26T04:16:31.509Z,50.31
2019-06-26T04:17:30.486Z,49.91
2019-06-26T04:18:30.553Z,49.91
2019-06-26T04:19:30.467Z,50.31
2019-06-26T04:20:30.454Z,50.90
2019-06-26T04:21:30.444Z,51.10
2019-06-26T04:22:30.434Z,51.03
2019-06-26T04:23:30.422Z,51.79
2019-06-26T04:24:30.413Z,51.13
2019-06-26T04:25:30.402Z,51.52
2019-06-26T04:26:30.406Z,51.13
2019-06-26T04:27:30.379Z,51.03
2019-06-26T04:28:30.382Z,50.63
2019-06-26T04:29:30.358Z,51.32
2019-06-26T04:30:30.350Z,50.83
2019-06-26T04:31:30.343Z,51.30
2019-06-26T04:32:30.329Z,51.50
2019-06-26T04:33:30.313Z,51.42
2019-06-26T04:34:30.314Z,51.23
2019-06-26T04:35:30.292Z,51.52
2019-06-26T04:36:30.284Z,51.42
2019-06-26T04:37:30.273Z,51.50
2019-06-26T04:38:30.266Z,51.40
2019-06-26T04:39:30.263Z,51.59
2019-06-26T04:40:30.238Z,51.10
2019-06-26T04:41:30.231Z,51.59
2019-06-26T04:42:30.218Z,52.78
2019-06-26T04:43:30.208Z,52.61
2019-06-26T04:44:30.199Z,53.30
2019-06-26T04:45:30.189Z,52.81
2019-06-26T04:46:30.175Z,52.81
2019-06-26T04:47:30.179Z,52.91
2019-06-26T04:48:30.155Z,53.30
2019-06-26T04:49:30.145Z,53.20
2019-06-26T04:50:30.133Z,52.81
2019-06-26T04:51:30.124Z,53.50
2019-06-26T04:52:30.174Z,53.00
2019-06-26T04:53:30.100Z,53.30
2019-06-26T04:54:30.089Z,53.11
2019-06-26T04:55:30.086Z,53.99
2019-06-26T04:56:30.070Z,53.70
2019-06-26T04:57:30.060Z,53.60
2019-06-26T04:58:30.046Z,53.60
2019-06-26T04:59:30.038Z,52.71
2019-06-26T05:00:30.032Z,52.58
2019-06-26T05:01:30.019Z,53.57
2019-06-26T05:02:30.007Z,53.08
2019-06-26T05:03:29.995Z,52.58
2019-06-26T05:04:29.982Z,53.77
2019-06-26T05:05:39.509Z,52.78
2019-06-26T05:06:30.960Z,52.78
2019-06-26T05:07:29.953Z,52.78
2019-06-26T05:08:29.941Z,52.48
2019-06-26T05:09:29.929Z,52.69
2019-06-26T05:10:29.919Z,52.78
2019-06-26T05:11:29.916Z,52.86
2019-06-26T05:12:29.900Z,53.87
2019-06-26T05:13:29.888Z,53.57
2019-06-26T05:14:29.883Z,52.95
2019-06-26T05:15:29.869Z,52.76
2019-06-26T05:16:29.858Z,52.56
2019-06-26T05:17:29.854Z,52.36
2019-06-26T05:18:29.841Z,52.58
2019-06-26T05:19:29.822Z,53.47
2019-06-26T05:20:29.812Z,50.88
2019-06-26T05:21:29.801Z,51.79
2019-06-26T05:22:29.877Z,51.77
2019-06-26T05:23:29.779Z,52.78
2019-06-26T05:24:29.771Z,52.78
2019-06-26T05:25:29.763Z,52.36
2019-06-26T05:26:29.748Z,53.35
2019-06-26T05:27:29.738Z,53.64
2019-06-26T05:28:29.725Z,53.45
2019-06-26T05:29:29.726Z,53.64
2019-06-26T05:30:29.708Z,52.17
2019-06-26T05:31:29.694Z,51.37
2019-06-26T05:32:29.685Z,51.57
2019-06-26T05:33:29.693Z,51.57
2019-06-26T05:34:29.675Z,51.57
2019-06-26T05:35:29.651Z,51.47
2019-06-26T05:36:29.655Z,51.57
2019-06-26T05:37:29.631Z,52.76
2019-06-26T05:38:29.620Z,52.26
2019-06-26T05:39:29.610Z,52.17
2019-06-26T05:40:29.600Z,52.46
2019-06-26T05:41:29.587Z,52.06
2019-06-26T05:42:29.584Z,52.76
2019-06-26T05:43:29.565Z,53.45
2019-06-26T05:44:29.556Z,52.76
2019-06-26T05:45:29.601Z,51.77
2019-06-26T05:46:31.554Z,53.52
2019-06-26T05:47:29.527Z,53.75
2019-06-26T05:48:29.518Z,52.17
2019-06-26T05:49:29.505Z,51.97
2019-06-26T05:50:29.494Z,52.83
2019-06-26T05:51:29.484Z,52.83
2019-06-26T05:52:29.472Z,51.84
2019-06-26T05:53:29.467Z,52.34
2019-06-26T05:54:29.452Z,52.06
2019-06-26T05:55:29.443Z,52.93
2019-06-26T05:56:29.446Z,51.94
2019-06-26T05:57:29.427Z,51.94
2019-06-26T05:58:29.409Z,52.34
2019-06-26T05:59:29.398Z,52.34
2019-06-26T06:00:29.443Z,53.33
2019-06-26T06:01:29.378Z,53.33
2019-06-26T06:02:29.368Z,53.22
2019-06-26T06:03:29.354Z,52.73
2019-06-26T06:04:29.344Z,52.14
2019-06-26T06:05:29.340Z,52.11
2019-06-26T06:06:41.155Z,52.11
2019-06-26T06:07:30.311Z,52.11
2019-06-26T06:08:29.304Z,52.73
2019-06-26T06:09:29.291Z,52.01
2019-06-26T06:10:29.282Z,52.41
2019-06-26T06:11:29.283Z,52.11
2019-06-26T06:12:29.262Z,52.51
2019-06-26T06:13:29.263Z,51.92
2019-06-26T06:14:29.240Z,52.80
2019-06-26T06:15:29.232Z,52.70
2019-06-26T06:16:29.223Z,52.80
2019-06-26T06:17:29.211Z,52.80
2019-06-26T06:18:29.202Z,52.01
2019-06-26T06:19:29.189Z,52.70
2019-06-26T06:20:29.178Z,52.21
2019-06-26T06:21:29.167Z,52.41
2019-06-26T06:22:29.158Z,52.11
2019-06-26T06:23:29.203Z,52.01
2019-06-26T06:24:29.138Z,51.42
2019-06-26T06:25:29.132Z,52.21
2019-06-26T06:26:29.120Z,52.01
2019-06-26T06:27:29.107Z,52.21
2019-06-26T06:28:29.098Z,51.82
2019-06-26T06:29:30.790Z,52.31
2019-06-26T06:30:29.080Z,52.11
2019-06-26T06:31:29.068Z,52.01
2019-06-26T06:32:29.107Z,52.21
2019-06-26T06:33:29.064Z,52.01
2019-06-26T06:34:29.037Z,51.82
2019-06-26T06:35:29.028Z,51.52
2019-06-26T06:36:29.055Z,52.01
2019-06-26T06:37:29.005Z,52.51
2019-06-26T06:38:28.997Z,52.31
2019-06-26T06:39:28.988Z,52.09
2019-06-26T06:40:28.973Z,52.58
2019-06-26T06:41:28.964Z,52.80
2019-06-26T06:42:28.953Z,52.80
2019-06-26T06:43:28.946Z,52.70
2019-06-26T06:44:28.934Z,52.21
2019-06-26T06:45:28.935Z,52.11
2019-06-26T06:46:28.920Z,52.01
2019-06-26T06:47:28.922Z,52.51
2019-06-26T06:48:28.895Z,52.61
2019-06-26T06:49:28.883Z,52.70
2019-06-26T06:50:28.873Z,51.99
2019-06-26T06:51:28.865Z,52.11
2019-06-26T06:52:28.852Z,52.31
2019-06-26T06:53:28.841Z,52.19
2019-06-26T06:54:28.835Z,52.19
2019-06-26T06:55:28.821Z,51.89
2019-06-26T06:56:28.812Z,52.09
2019-06-26T06:57:28.803Z,52.09
2019-06-26T06:58:30.266Z,52.09
2019-06-26T06:59:28.785Z,52.19
2019-06-26T07:00:28.770Z,52.19
2019-06-26T07:01:28.761Z,52.19
2019-06-26T07:02:28.751Z,52.09
2019-06-26T07:03:28.741Z,52.68
2019-06-26T07:04:28.731Z,52.28
2019-06-26T07:05:28.720Z,52.58
2019-06-26T07:06:28.712Z,52.19
2019-06-26T07:07:28.718Z,52.09
2019-06-26T07:08:28.691Z,52.48
2019-06-26T07:09:28.680Z,52.19
2019-06-26T07:10:28.669Z,52.39
2019-06-26T07:11:28.667Z,52.58
2019-06-26T07:12:28.651Z,51.99
2019-06-26T07:13:28.640Z,52.78
2019-06-26T07:14:28.627Z,52.39
2019-06-26T07:15:28.620Z,52.28
2019-06-26T07:16:28.612Z,52.39
2019-06-26T07:17:28.645Z,52.39
2019-06-26T07:18:28.591Z,52.68
2019-06-26T07:19:28.580Z,52.09
2019-06-26T07:20:28.568Z,51.89
2019-06-26T07:21:28.562Z,52.75
2019-06-26T07:22:28.551Z,52.48
2019-06-26T07:23:28.604Z,52.09
2019-06-26T07:24:28.535Z,52.48
2019-06-26T07:25:28.519Z,52.58
2019-06-26T07:26:28.512Z,52.68
2019-06-26T07:27:28.498Z,52.68
2019-06-26T07:28:28.489Z,52.39
2019-06-26T07:29:28.506Z,52.48
2019-06-26T07:30:28.470Z,52.58
2019-06-26T07:31:28.457Z,52.48
2019-06-26T07:32:28.447Z,53.25
2019-06-26T07:33:28.436Z,53.08
2019-06-26T07:34:28.427Z,52.26
2019-06-26T07:35:28.413Z,52.68
2019-06-26T07:36:28.408Z,51.57
2019-06-26T07:37:28.393Z,51.87
2019-06-26T07:38:28.382Z,52.28
2019-06-26T07:39:28.373Z,52.58
2019-06-26T07:40:28.368Z,52.46
2019-06-26T07:41:28.355Z,52.36
2019-06-26T07:42:28.352Z,51.87
2019-06-26T07:43:28.333Z,52.66
2019-06-26T07:44:28.491Z,52.75
2019-06-26T07:45:28.312Z,52.46
2019-06-26T07:46:28.297Z,52.06
2019-06-26T07:47:42.378Z,52.46
2019-06-26T07:48:29.276Z,52.46
2019-06-26T07:49:28.506Z,52.36
2019-06-26T07:50:32.048Z,52.46
2019-06-26T07:51:28.249Z,52.66
2019-06-26T07:52:28.238Z,52.75
2019-06-26T07:53:28.234Z,52.26
2019-06-26T07:54:28.221Z,52.16
2019-06-26T07:55:28.230Z,52.16
2019-06-26T07:56:28.208Z,52.46
2019-06-26T07:57:28.224Z,52.46
2019-06-26T07:58:28.179Z,52.26
2019-06-26T07:59:28.167Z,52.16
2019-06-26T08:00:31.498Z,52.36
2019-06-26T08:01:28.223Z,52.66
2019-06-26T08:02:28.442Z,52.46
2019-06-26T08:03:28.128Z,52.36
2019-06-26T08:04:28.117Z,52.46
2019-06-26T08:05:28.107Z,51.97
2019-06-26T08:06:28.100Z,52.36
2019-06-26T08:07:28.096Z,52.36
2019-06-26T08:08:28.076Z,51.35
2019-06-26T08:09:28.070Z,51.28
2019-06-26T08:10:28.099Z,52.26
2019-06-26T08:11:28.044Z,52.26
2019-06-26T08:12:28.039Z,52.06
2019-06-26T08:13:28.027Z,52.23
2019-06-26T08:14:28.024Z,51.97
2019-06-26T08:15:28.009Z,51.87
2019-06-26T08:16:27.996Z,51.97
2019-06-26T08:17:28.075Z,51.67
2019-06-26T08:18:27.973Z,51.57
2019-06-26T08:19:27.964Z,51.57
2019-06-26T08:20:27.953Z,51.47
2019-06-26T08:21:27.944Z,51.87
2019-06-26T08:22:27.939Z,51.28
2019-06-26T08:23:27.922Z,51.47
2019-06-26T08:24:27.997Z,50.78
2019-06-26T08:25:27.912Z,51.28
2019-06-26T08:26:28.097Z,51.18
2019-06-26T08:27:27.882Z,51.67
2019-06-26T08:28:27.875Z,51.77
2019-06-26T08:29:27.870Z,52.06
2019-06-26T08:30:27.852Z,51.07
2019-06-26T08:31:27.843Z,51.57
2019-06-26T08:32:27.833Z,51.64
2019-06-26T08:33:27.843Z,51.87
2019-06-26T08:34:27.819Z,51.45
2019-06-26T08:35:27.799Z,50.88
2019-06-26T08:36:27.866Z,51.64
2019-06-26T08:37:27.779Z,51.77
2019-06-26T08:38:27.775Z,51.45
2019-06-26T08:39:27.760Z,51.45
2019-06-26T08:40:27.748Z,51.94
2019-06-26T08:41:27.744Z,50.76
2019-06-26T08:42:27.728Z,51.05
2019-06-26T08:43:31.093Z,51.45
2019-06-26T08:44:27.709Z,50.95
2019-06-26T08:45:27.699Z,50.95
2019-06-26T08:46:27.726Z,51.45
2019-06-26T08:47:27.686Z,50.95
2019-06-26T08:48:39.062Z,51.05
2019-06-26T08:49:28.657Z,51.15
2019-06-26T08:50:27.655Z,50.85
2019-06-26T08:51:27.640Z,51.35
2019-06-26T08:52:27.887Z,51.54
2019-06-26T08:53:27.618Z,51.74
2019-06-26T08:54:27.611Z,50.95
2019-06-26T08:55:27.597Z,50.76
2019-06-26T08:56:27.586Z,50.95
2019-06-26T08:57:27.575Z,51.05
2019-06-26T08:58:28.674Z,51.05
2019-06-26T08:59:27.555Z,50.85
2019-06-26T09:00:27.548Z,51.05
2019-06-26T09:01:27.533Z,50.56
2019-06-26T09:02:27.555Z,50.46
2019-06-26T09:03:27.531Z,50.95
2019-06-26T09:04:27.508Z,50.16
2019-06-26T09:05:27.495Z,50.66
2019-06-26T09:06:27.498Z,50.85
2019-06-26T09:07:27.509Z,50.36
2019-06-26T09:08:27.642Z,50.36
2019-06-26T09:09:27.466Z,50.07
2019-06-26T09:10:27.441Z,50.16
2019-06-26T09:11:27.436Z,50.36
2019-06-26T09:12:27.427Z,49.77
2019-06-26T09:13:27.411Z,49.77
2019-06-26T09:14:27.403Z,49.87
2019-06-26T09:15:27.395Z,49.67
2019-06-26T09:16:27.389Z,49.57
2019-06-26T09:17:27.372Z,49.77
2019-06-26T09:18:35.582Z,50.07
2019-06-26T09:19:28.351Z,50.16
2019-06-26T09:20:27.349Z,50.07
2019-06-26T09:21:30.943Z,49.87
2019-06-26T09:22:27.340Z,50.07
2019-06-26T09:23:30.904Z,50.26
2019-06-26T09:24:27.304Z,49.48
2019-06-26T09:25:27.301Z,50.16
2019-06-26T09:26:27.325Z,49.77
2019-06-26T09:27:27.274Z,49.38
2019-06-26T09:28:27.267Z,50.16
2019-06-26T09:29:27.270Z,49.67
2019-06-26T09:30:27.247Z,49.48
2019-06-26T09:31:27.335Z,49.38
2019-06-26T09:32:27.225Z,49.57
2019-06-26T09:33:27.219Z,49.67
2019-06-26T09:34:27.210Z,50.07
2019-06-26T09:35:27.193Z,49.97
2019-06-26T09:36:27.183Z,49.48
2019-06-26T09:37:27.174Z,49.97
2019-06-26T09:38:27.221Z,49.48
2019-06-26T09:39:27.210Z,49.67
2019-06-26T09:40:27.140Z,49.97
2019-06-26T09:41:27.143Z,49.48
2019-06-26T09:42:27.119Z,49.69
2019-06-26T09:43:27.109Z,49.57
2019-06-26T09:44:27.099Z,49.18
2019-06-26T09:45:27.258Z,48.88
2019-06-26T09:46:27.093Z,49.57
2019-06-26T09:47:30.847Z,49.48
2019-06-26T09:48:27.062Z,49.67
2019-06-26T09:49:27.054Z,49.57
2019-06-26T09:50:27.040Z,48.49
2019-06-26T09:51:27.029Z,48.98
2019-06-26T09:52:27.018Z,49.48
2019-06-26T09:53:27.013Z,49.28
2019-06-26T09:54:27.003Z,49.18
2019-06-26T09:55:26.994Z,49.67
2019-06-26T09:56:26.982Z,49.28
2019-06-26T09:57:26.968Z,49.48
2019-06-26T09:58:26.959Z,49.97
2019-06-26T09:59:26.971Z,49.38
2019-06-26T10:00:26.938Z,49.28
2019-06-26T10:01:26.927Z,49.57
2019-06-26T10:02:26.916Z,49.48
2019-06-26T10:03:26.907Z,49.48
2019-06-26T10:04:26.900Z,49.77
2019-06-26T10:05:26.887Z,49.48
2019-06-26T10:06:26.877Z,49.48
2019-06-26T10:07:26.867Z,49.40
2019-06-26T10:08:26.860Z,49.38
2019-06-26T10:09:26.846Z,49.67
2019-06-26T10:10:26.836Z,49.48
2019-06-26T10:11:26.827Z,49.67
2019-06-26T10:12:26.818Z,49.77
2019-06-26T10:13:26.828Z,49.77
2019-06-26T10:14:45.532Z,49.99
2019-06-26T10:15:27.783Z,49.50
2019-06-26T10:16:26.777Z,49.90
2019-06-26T10:17:26.776Z,49.60
2019-06-26T10:18:26.757Z,49.48
2019-06-26T10:19:26.747Z,49.69
2019-06-26T10:20:26.740Z,49.79
2019-06-26T10:21:26.726Z,49.40
2019-06-26T10:22:26.728Z,49.40
2019-06-26T10:23:26.709Z,49.60
2019-06-26T10:24:26.699Z,49.40
2019-06-26T10:25:26.688Z,49.57
2019-06-26T10:26:26.681Z,49.40
2019-06-26T10:27:26.728Z,49.30
2019-06-26T10:28:26.662Z,49.50
2019-06-26T10:29:26.644Z,49.69
2019-06-26T10:30:26.636Z,49.79
2019-06-26T10:31:26.649Z,49.50
2019-06-26T10:32:26.618Z,49.40
2019-06-26T10:33:26.606Z,49.60
2019-06-26T10:34:26.595Z,49.90
2019-06-26T10:35:26.584Z,49.50
2019-06-26T10:36:26.575Z,49.50
2019-06-26T10:37:26.565Z,49.48
2019-06-26T10:38:26.557Z,49.40
2019-06-26T10:39:26.551Z,49.79
2019-06-26T10:40:26.535Z,49.50
2019-06-26T10:41:26.525Z,49.40
2019-06-26T10:42:26.514Z,49.99
2019-06-26T10:43:26.503Z,50.07
2019-06-26T10:44:26.494Z,50.29
2019-06-26T10:45:26.488Z,49.50
2019-06-26T10:46:26.473Z,49.60
2019-06-26T10:47:26.473Z,50.19
2019-06-26T10:48:26.456Z,50.29
2019-06-26T10:49:27.822Z,49.90
2019-06-26T10:50:26.434Z,49.99
2019-06-26T10:51:26.423Z,50.19
2019-06-26T10:52:26.412Z,49.90
2019-06-26T10:53:26.402Z,50.38
2019-06-26T10:54:26.394Z,49.50
2019-06-26T10:55:26.383Z,49.97
2019-06-26T10:56:28.835Z,49.99
2019-06-26T10:57:26.363Z,50.09
2019-06-26T10:58:26.352Z,50.09
2019-06-26T10:59:26.348Z,49.79
2019-06-26T11:00:26.332Z,49.79
2019-06-26T11:01:26.322Z,49.90
2019-06-26T11:02:26.312Z,50.09
2019-06-26T11:03:26.308Z,49.90
2019-06-26T11:04:26.295Z,50.19
2019-06-26T11:05:26.297Z,50.19
2019-06-26T11:06:26.273Z,49.50
2019-06-26T11:07:26.266Z,49.69
2019-06-26T11:08:26.282Z,49.90
2019-06-26T11:09:26.240Z,50.19
2019-06-26T11:10:26.242Z,50.19
2019-06-26T11:11:26.229Z,50.09
2019-06-26T11:12:26.211Z,50.19
2019-06-26T11:13:26.201Z,49.77
2019-06-26T11:14:26.199Z,49.79
2019-06-26T11:15:26.179Z,50.09
2019-06-26T11:16:26.178Z,49.99
2019-06-26T11:17:26.160Z,49.90
2019-06-26T11:18:26.172Z,49.79
2019-06-26T11:19:42.368Z,50.19
2019-06-26T11:20:27.126Z,50.78
2019-06-26T11:21:26.120Z,52.06
2019-06-26T11:22:26.109Z,51.57
2019-06-26T11:23:26.099Z,51.77
2019-06-26T11:24:26.092Z,51.18
2019-06-26T11:25:26.082Z,50.98
2019-06-26T11:26:26.069Z,51.18
2019-06-26T11:27:26.063Z,51.18
2019-06-26T11:28:26.051Z,51.18
2019-06-26T11:29:26.038Z,50.29
2019-06-26T11:30:26.031Z,49.67
2019-06-26T11:31:26.020Z,50.09
2019-06-26T11:32:26.011Z,50.49
2019-06-26T11:33:25.995Z,49.90
2019-06-26T11:34:25.989Z,50.19
2019-06-26T11:35:25.975Z,49.57
2019-06-26T11:36:25.970Z,50.09
2019-06-26T11:37:25.953Z,49.77
2019-06-26T11:38:25.994Z,50.07
2019-06-26T11:39:25.942Z,49.48
2019-06-26T11:40:25.927Z,50.07
2019-06-26T11:41:25.927Z,49.38
2019-06-26T11:42:25.909Z,49.50
2019-06-26T11:43:25.890Z,49.87
2019-06-26T11:44:25.881Z,49.48
2019-06-26T11:45:25.879Z,49.57
2019-06-26T11:46:25.859Z,49.48
2019-06-26T11:47:25.851Z,49.30
2019-06-26T11:48:25.842Z,49.50
2019-06-26T11:49:25.828Z,50.56
2019-06-26T11:50:25.819Z,49.77
2019-06-26T11:51:25.814Z,50.07
2019-06-26T11:52:25.810Z,50.26
2019-06-26T11:53:25.801Z,50.07
2019-06-26T11:54:25.787Z,50.07
2019-06-26T11:55:25.767Z,50.07
2019-06-26T11:56:25.766Z,50.46
2019-06-26T11:57:25.749Z,49.28
2019-06-26T11:58:25.742Z,49.77
2019-06-26T11:59:25.783Z,49.57
2019-06-26T12:00:25.720Z,50.29
2019-06-26T12:01:25.710Z,50.07
2019-06-26T12:02:25.710Z,50.38
2019-06-26T12:03:25.725Z,50.88
2019-06-26T12:04:25.693Z,50.95
2019-06-26T12:05:25.667Z,50.85
2019-06-26T12:06:25.660Z,51.35
2019-06-26T12:07:25.651Z,50.95
2019-06-26T12:08:25.637Z,50.78
2019-06-26T12:09:25.629Z,51.05
2019-06-26T12:10:25.622Z,50.88
2019-06-26T12:11:25.655Z,49.77
2019-06-26T12:12:25.599Z,50.85
2019-06-26T12:13:25.588Z,51.25
2019-06-26T12:14:25.587Z,52.23
2019-06-26T12:15:25.570Z,52.16
2019-06-26T12:16:25.557Z,51.64
2019-06-26T12:17:25.555Z,50.76
2019-06-26T12:18:25.537Z,50.85
2019-06-26T12:19:25.527Z,51.25
2019-06-26T12:20:25.518Z,50.76
2019-06-26T12:21:25.508Z,50.56
2019-06-26T12:22:25.499Z,49.77
2019-06-26T12:23:25.492Z,49.87
2019-06-26T12:24:26.568Z,49.69
2019-06-26T12:25:25.466Z,49.77
2019-06-26T12:26:25.479Z,50.07
2019-06-26T12:27:25.444Z,49.48
2019-06-26T12:28:25.436Z,49.60
2019-06-26T12:29:25.429Z,49.99
2019-06-26T12:30:25.419Z,49.90
2019-06-26T12:31:25.417Z,49.50
2019-06-26T12:32:25.394Z,50.26
2019-06-26T12:33:25.385Z,49.69
2019-06-26T12:34:25.378Z,49.60
2019-06-26T12:35:25.367Z,49.90
2019-06-26T12:36:25.532Z,49.69
2019-06-26T12:37:36.946Z,49.50
2019-06-26T12:38:26.334Z,49.60
2019-06-26T12:39:25.342Z,50.09
2019-06-26T12:40:25.319Z,49.99
2019-06-26T12:41:25.308Z,49.40
2019-06-26T12:42:25.300Z,49.97
2019-06-26T12:43:25.284Z,49.38
2019-06-26T12:44:25.277Z,49.20
2019-06-26T12:45:25.264Z,49.60
2019-06-26T12:46:25.257Z,49.50
2019-06-26T12:47:25.245Z,49.40
2019-06-26T12:48:25.252Z,49.40
2019-06-26T12:49:25.224Z,49.69
2019-06-26T12:50:35.262Z,49.79
2019-06-26T12:51:26.216Z,49.69
2019-06-26T12:52:25.191Z,49.60